sensor_id;sensor_type;location;lat;lon;timestamp;P1;durP1;ratioP1;P2;durP2;ratioP2
13267;SDS011;6702;47.068;15.458;2022-09-06T00:01:22;19.43;;;17.93;;
13267;SDS011;6702;47.068;15.458;2022-09-06T00:04:25;18.40;;;17.07;;
13267;SDS011;6702;47.068;15.458;2022-09-06T00:07:29;20.33;;;18.60;;
13267;SDS011;6702;47.068;15.458;2022-09-06T00:10:32;18.23;;;16.90;;
13267;SDS011;6702;47.068;15.458;2022-09-06T00:13:36;20.07;;;18.47;;
13267;SDS011;6702;47.068;15.458;2022-09-06T00:16:41;18.13;;;16.83;;
13267;SDS011;6702;47.068;15.458;2022-09-06T00:19:44;18.70;;;17.30;;
13267;SDS011;6702;47.068;15.458;2022-09-06T00:22:47;20.03;;;18.33;;
13267;SDS011;6702;47.068;15.458;2022-09-06T00:25:50;19.07;;;17.67;;
13267;SDS011;6702;47.068;15.458;2022-09-06T00:28:53;19.53;;;18.07;;
13267;SDS011;6702;47.068;15.458;2022-09-06T00:31:58;18.60;;;17.30;;
13267;SDS011;6702;47.068;15.458;2022-09-06T00:35:01;19.90;;;18.40;;
13267;SDS011;6702;47.068;15.458;2022-09-06T00:38:04;18.80;;;17.47;;
13267;SDS011;6702;47.068;15.458;2022-09-06T00:41:09;18.93;;;17.60;;
13267;SDS011;6702;47.068;15.458;2022-09-06T00:44:13;19.13;;;17.70;;
13267;SDS011;6702;47.068;15.458;2022-09-06T00:47:17;20.33;;;18.63;;
13267;SDS011;6702;47.068;15.458;2022-09-06T00:50:21;19.73;;;18.27;;
13267;SDS011;6702;47.068;15.458;2022-09-06T00:53:24;19.43;;;17.93;;
13267;SDS011;6702;47.068;15.458;2022-09-06T00:56:28;19.13;;;17.73;;
13267;SDS011;6702;47.068;15.458;2022-09-06T00:59:33;18.77;;;17.27;;
13267;SDS011;6702;47.068;15.458;2022-09-06T01:02:39;19.33;;;17.90;;
13267;SDS011;6702;47.068;15.458;2022-09-06T01:05:45;19.03;;;17.57;;
13267;SDS011;6702;47.068;15.458;2022-09-06T01:08:58;18.73;;;17.23;;
13267;SDS011;6702;47.068;15.458;2022-09-06T01:12:12;19.50;;;18.00;;
13267;SDS011;6702;47.068;15.458;2022-09-06T01:15:27;19.30;;;17.80;;
13267;SDS011;6702;47.068;15.458;2022-09-06T01:18:41;20.50;;;18.80;;
13267;SDS011;6702;47.068;15.458;2022-09-06T01:22:08;19.50;;;18.00;;
13267;SDS011;6702;47.068;15.458;2022-09-06T01:25:24;19.00;;;17.47;;
13267;SDS011;6702;47.068;15.458;2022-09-06T01:28:37;18.50;;;17.10;;
13267;SDS011;6702;47.068;15.458;2022-09-06T01:31:43;18.47;;;17.07;;
13267;SDS011;6702;47.068;15.458;2022-09-06T01:34:49;18.87;;;17.53;;
13267;SDS011;6702;47.068;15.458;2022-09-06T01:37:57;18.93;;;17.43;;
13267;SDS011;6702;47.068;15.458;2022-09-06T01:41:01;18.97;;;17.50;;
13267;SDS011;6702;47.068;15.458;2022-09-06T01:44:06;19.13;;;17.63;;
13267;SDS011;6702;47.068;15.458;2022-09-06T01:47:12;18.47;;;17.17;;
13267;SDS011;6702;47.068;15.458;2022-09-06T01:54:02;18.13;;;16.70;;
13267;SDS011;6702;47.068;15.458;2022-09-06T01:57:21;18.37;;;16.67;;
13267;SDS011;6702;47.068;15.458;2022-09-06T02:00:35;19.87;;;18.37;;
13267;SDS011;6702;47.068;15.458;2022-09-06T02:03:45;19.70;;;18.20;;
13267;SDS011;6702;47.068;15.458;2022-09-06T02:06:56;19.90;;;18.20;;
13267;SDS011;6702;47.068;15.458;2022-09-06T02:10:07;19.30;;;17.80;;
13267;SDS011;6702;47.068;15.458;2022-09-06T02:13:14;18.60;;;17.10;;
13267;SDS011;6702;47.068;15.458;2022-09-06T02:16:20;20.77;;;19.17;;
13267;SDS011;6702;47.068;15.458;2022-09-06T02:19:27;19.03;;;17.53;;
13267;SDS011;6702;47.068;15.458;2022-09-06T02:22:37;19.57;;;18.07;;
13267;SDS011;6702;47.068;15.458;2022-09-06T02:25:46;18.57;;;16.90;;
13267;SDS011;6702;47.068;15.458;2022-09-06T02:28:54;20.27;;;18.47;;
13267;SDS011;6702;47.068;15.458;2022-09-06T02:32:00;19.90;;;18.20;;
13267;SDS011;6702;47.068;15.458;2022-09-06T02:35:11;18.73;;;17.23;;
13267;SDS011;6702;47.068;15.458;2022-09-06T02:38:17;19.80;;;18.10;;
13267;SDS011;6702;47.068;15.458;2022-09-06T02:41:22;19.13;;;17.37;;
13267;SDS011;6702;47.068;15.458;2022-09-06T02:44:26;19.87;;;18.20;;
13267;SDS011;6702;47.068;15.458;2022-09-06T02:47:30;19.87;;;18.07;;
13267;SDS011;6702;47.068;15.458;2022-09-06T02:50:34;19.07;;;17.57;;
13267;SDS011;6702;47.068;15.458;2022-09-06T02:53:37;19.43;;;17.90;;
13267;SDS011;6702;47.068;15.458;2022-09-06T02:56:40;19.10;;;17.60;;
13267;SDS011;6702;47.068;15.458;2022-09-06T02:59:43;20.00;;;18.33;;
13267;SDS011;6702;47.068;15.458;2022-09-06T03:02:48;19.20;;;17.70;;
13267;SDS011;6702;47.068;15.458;2022-09-06T03:05:52;19.90;;;18.33;;
13267;SDS011;6702;47.068;15.458;2022-09-06T03:08:56;18.87;;;17.27;;
13267;SDS011;6702;47.068;15.458;2022-09-06T03:12:00;18.43;;;16.83;;
13267;SDS011;6702;47.068;15.458;2022-09-06T03:15:04;17.30;;;16.00;;
13267;SDS011;6702;47.068;15.458;2022-09-06T03:18:09;19.30;;;17.80;;
13267;SDS011;6702;47.068;15.458;2022-09-06T03:21:12;17.47;;;16.07;;
13267;SDS011;6702;47.068;15.458;2022-09-06T03:24:15;19.40;;;17.80;;
13267;SDS011;6702;47.068;15.458;2022-09-06T03:27:19;19.30;;;17.73;;
13267;SDS011;6702;47.068;15.458;2022-09-06T03:30:22;17.53;;;16.13;;
13267;SDS011;6702;47.068;15.458;2022-09-06T03:33:26;18.47;;;17.10;;
13267;SDS011;6702;47.068;15.458;2022-09-06T03:36:29;18.17;;;16.67;;
13267;SDS011;6702;47.068;15.458;2022-09-06T03:39:32;17.17;;;15.67;;
13267;SDS011;6702;47.068;15.458;2022-09-06T03:42:36;19.03;;;17.47;;
13267;SDS011;6702;47.068;15.458;2022-09-06T03:45:39;18.30;;;16.80;;
13267;SDS011;6702;47.068;15.458;2022-09-06T03:48:47;20.00;;;18.50;;
13267;SDS011;6702;47.068;15.458;2022-09-06T03:51:50;19.50;;;17.80;;
13267;SDS011;6702;47.068;15.458;2022-09-06T03:54:54;18.50;;;16.90;;
13267;SDS011;6702;47.068;15.458;2022-09-06T03:57:57;17.43;;;16.13;;
13267;SDS011;6702;47.068;15.458;2022-09-06T04:01:01;17.50;;;16.03;;
13267;SDS011;6702;47.068;15.458;2022-09-06T04:04:07;19.00;;;17.37;;
13267;SDS011;6702;47.068;15.458;2022-09-06T04:07:11;17.93;;;16.43;;
13267;SDS011;6702;47.068;15.458;2022-09-06T04:10:14;18.00;;;16.50;;
13267;SDS011;6702;47.068;15.458;2022-09-06T04:13:17;18.17;;;16.37;;
13267;SDS011;6702;47.068;15.458;2022-09-06T04:16:20;17.80;;;16.50;;
13267;SDS011;6702;47.068;15.458;2022-09-06T04:19:25;17.17;;;15.37;;
13267;SDS011;6702;47.068;15.458;2022-09-06T04:22:28;18.63;;;17.13;;
13267;SDS011;6702;47.068;15.458;2022-09-06T04:25:31;17.40;;;15.70;;
13267;SDS011;6702;47.068;15.458;2022-09-06T04:28:34;17.93;;;16.43;;
13267;SDS011;6702;47.068;15.458;2022-09-06T04:31:37;17.40;;;16.07;;
13267;SDS011;6702;47.068;15.458;2022-09-06T04:34:42;18.20;;;16.83;;
13267;SDS011;6702;47.068;15.458;2022-09-06T04:37:45;17.10;;;15.80;;
13267;SDS011;6702;47.068;15.458;2022-09-06T04:40:48;18.37;;;16.97;;
13267;SDS011;6702;47.068;15.458;2022-09-06T04:43:51;17.17;;;15.87;;
13267;SDS011;6702;47.068;15.458;2022-09-06T04:47:01;18.17;;;16.67;;
13267;SDS011;6702;47.068;15.458;2022-09-06T04:50:11;17.50;;;16.00;;
13267;SDS011;6702;47.068;15.458;2022-09-06T04:53:14;18.50;;;17.00;;
13267;SDS011;6702;47.068;15.458;2022-09-06T04:56:18;17.67;;;16.27;;
13267;SDS011;6702;47.068;15.458;2022-09-06T04:59:23;18.33;;;16.93;;
13267;SDS011;6702;47.068;15.458;2022-09-06T05:02:26;17.30;;;16.00;;
13267;SDS011;6702;47.068;15.458;2022-09-06T05:05:31;17.13;;;15.57;;
13267;SDS011;6702;47.068;15.458;2022-09-06T05:08:35;16.97;;;15.50;;
13267;SDS011;6702;47.068;15.458;2022-09-06T05:11:39;18.53;;;16.93;;
13267;SDS011;6702;47.068;15.458;2022-09-06T05:14:42;17.67;;;16.20;;
13267;SDS011;6702;47.068;15.458;2022-09-06T05:17:45;17.20;;;15.70;;
13267;SDS011;6702;47.068;15.458;2022-09-06T05:20:51;15.93;;;14.73;;
13267;SDS011;6702;47.068;15.458;2022-09-06T05:23:55;16.33;;;15.03;;
13267;SDS011;6702;47.068;15.458;2022-09-06T05:26:59;17.90;;;16.53;;
13267;SDS011;6702;47.068;15.458;2022-09-06T05:30:05;18.30;;;16.70;;
13267;SDS011;6702;47.068;15.458;2022-09-06T05:33:08;17.23;;;15.77;;
13267;SDS011;6702;47.068;15.458;2022-09-06T05:36:14;17.97;;;16.47;;
13267;SDS011;6702;47.068;15.458;2022-09-06T05:39:17;17.47;;;16.00;;
13267;SDS011;6702;47.068;15.458;2022-09-06T05:42:21;17.80;;;16.40;;
13267;SDS011;6702;47.068;15.458;2022-09-06T05:45:24;18.77;;;17.27;;
13267;SDS011;6702;47.068;15.458;2022-09-06T05:48:27;18.00;;;16.60;;
13267;SDS011;6702;47.068;15.458;2022-09-06T05:51:38;16.50;;;15.30;;
13267;SDS011;6702;47.068;15.458;2022-09-06T05:54:42;17.70;;;16.10;;
13267;SDS011;6702;47.068;15.458;2022-09-06T05:57:45;18.73;;;17.23;;
13267;SDS011;6702;47.068;15.458;2022-09-06T06:00:48;19.07;;;17.47;;
13267;SDS011;6702;47.068;15.458;2022-09-06T06:03:52;18.17;;;16.67;;
13267;SDS011;6702;47.068;15.458;2022-09-06T06:06:58;16.93;;;15.63;;
13267;SDS011;6702;47.068;15.458;2022-09-06T06:10:02;18.63;;;16.87;;
13267;SDS011;6702;47.068;15.458;2022-09-06T06:13:05;17.43;;;15.90;;
13267;SDS011;6702;47.068;15.458;2022-09-06T06:16:09;17.47;;;16.07;;
13267;SDS011;6702;47.068;15.458;2022-09-06T06:19:13;16.63;;;15.33;;
13267;SDS011;6702;47.068;15.458;2022-09-06T06:22:18;18.20;;;16.57;;
13267;SDS011;6702;47.068;15.458;2022-09-06T06:25:21;16.60;;;15.30;;
13267;SDS011;6702;47.068;15.458;2022-09-06T06:28:26;15.60;;;14.50;;
13267;SDS011;6702;47.068;15.458;2022-09-06T06:31:30;15.77;;;14.47;;
13267;SDS011;6702;47.068;15.458;2022-09-06T06:34:34;15.10;;;14.00;;
13267;SDS011;6702;47.068;15.458;2022-09-06T06:37:38;14.47;;;13.57;;
13267;SDS011;6702;47.068;15.458;2022-09-06T06:40:44;13.87;;;12.87;;
13267;SDS011;6702;47.068;15.458;2022-09-06T06:43:47;16.83;;;13.23;;
13267;SDS011;6702;47.068;15.458;2022-09-06T06:46:52;13.10;;;12.17;;
13267;SDS011;6702;47.068;15.458;2022-09-06T06:49:58;14.50;;;13.10;;
13267;SDS011;6702;47.068;15.458;2022-09-06T06:53:03;21.75;;;13.00;;
13267;SDS011;6702;47.068;15.458;2022-09-06T06:56:14;12.60;;;11.88;;
13267;SDS011;6702;47.068;15.458;2022-09-06T06:59:18;12.77;;;11.75;;
13267;SDS011;6702;47.068;15.458;2022-09-06T07:02:21;12.65;;;11.50;;
13267;SDS011;6702;47.068;15.458;2022-09-06T07:05:25;13.45;;;12.27;;
13267;SDS011;6702;47.068;15.458;2022-09-06T07:08:50;11.25;;;10.43;;
13267;SDS011;6702;47.068;15.458;2022-09-06T07:11:53;11.98;;;11.07;;
13267;SDS011;6702;47.068;15.458;2022-09-06T07:14:56;11.63;;;10.82;;
13267;SDS011;6702;47.068;15.458;2022-09-06T07:17:59;11.93;;;11.02;;
13267;SDS011;6702;47.068;15.458;2022-09-06T07:21:02;12.65;;;11.75;;
13267;SDS011;6702;47.068;15.458;2022-09-06T07:24:27;12.10;;;11.20;;
13267;SDS011;6702;47.068;15.458;2022-09-06T07:27:30;10.85;;;10.07;;
13267;SDS011;6702;47.068;15.458;2022-09-06T07:30:51;11.15;;;10.35;;
13267;SDS011;6702;47.068;15.458;2022-09-06T07:33:56;12.40;;;11.50;;
13267;SDS011;6702;47.068;15.458;2022-09-06T07:36:59;11.68;;;10.77;;
13267;SDS011;6702;47.068;15.458;2022-09-06T07:40:04;11.38;;;10.55;;
13267;SDS011;6702;47.068;15.458;2022-09-06T07:43:08;11.88;;;11.10;;
13267;SDS011;6702;47.068;15.458;2022-09-06T07:46:11;12.35;;;11.55;;
13267;SDS011;6702;47.068;15.458;2022-09-06T07:49:17;11.45;;;10.63;;
13267;SDS011;6702;47.068;15.458;2022-09-06T07:52:20;12.02;;;11.32;;
13267;SDS011;6702;47.068;15.458;2022-09-06T07:55:48;11.38;;;10.65;;
13267;SDS011;6702;47.068;15.458;2022-09-06T07:58:52;12.52;;;11.73;;
13267;SDS011;6702;47.068;15.458;2022-09-06T08:01:56;12.45;;;11.65;;
13267;SDS011;6702;47.068;15.458;2022-09-06T08:04:59;12.35;;;11.57;;
13267;SDS011;6702;47.068;15.458;2022-09-06T08:08:02;11.75;;;10.85;;
13267;SDS011;6702;47.068;15.458;2022-09-06T08:11:28;10.93;;;9.88;;
13267;SDS011;6702;47.068;15.458;2022-09-06T08:14:32;11.98;;;11.18;;
13267;SDS011;6702;47.068;15.458;2022-09-06T08:17:36;10.63;;;9.93;;
13267;SDS011;6702;47.068;15.458;2022-09-06T08:20:39;11.23;;;10.27;;
13267;SDS011;6702;47.068;15.458;2022-09-06T08:23:43;11.75;;;11.05;;
13267;SDS011;6702;47.068;15.458;2022-09-06T08:26:50;13.45;;;12.45;;
13267;SDS011;6702;47.068;15.458;2022-09-06T08:29:53;11.93;;;11.23;;
13267;SDS011;6702;47.068;15.458;2022-09-06T08:32:56;11.00;;;10.40;;
13267;SDS011;6702;47.068;15.458;2022-09-06T08:35:59;11.85;;;11.05;;
13267;SDS011;6702;47.068;15.458;2022-09-06T08:39:03;12.48;;;11.60;;
13267;SDS011;6702;47.068;15.458;2022-09-06T08:42:09;11.05;;;10.32;;
13267;SDS011;6702;47.068;15.458;2022-09-06T08:45:15;11.65;;;10.85;;
13267;SDS011;6702;47.068;15.458;2022-09-06T08:48:20;11.55;;;10.95;;
13267;SDS011;6702;47.068;15.458;2022-09-06T08:51:34;13.98;;;13.00;;
13267;SDS011;6702;47.068;15.458;2022-09-06T08:54:50;12.60;;;11.90;;
13267;SDS011;6702;47.068;15.458;2022-09-06T08:58:02;11.68;;;10.98;;
13267;SDS011;6702;47.068;15.458;2022-09-06T09:01:15;11.70;;;11.00;;
13267;SDS011;6702;47.068;15.458;2022-09-06T09:04:23;11.95;;;11.15;;
13267;SDS011;6702;47.068;15.458;2022-09-06T09:07:35;13.82;;;12.93;;
13267;SDS011;6702;47.068;15.458;2022-09-06T09:10:43;11.85;;;10.95;;
13267;SDS011;6702;47.068;15.458;2022-09-06T09:13:51;11.63;;;10.93;;
13267;SDS011;6702;47.068;15.458;2022-09-06T09:16:58;11.95;;;11.25;;
13267;SDS011;6702;47.068;15.458;2022-09-06T09:20:06;11.15;;;10.45;;
13267;SDS011;6702;47.068;15.458;2022-09-06T09:23:10;11.90;;;11.30;;
13267;SDS011;6702;47.068;15.458;2022-09-06T09:26:13;12.45;;;11.43;;
13267;SDS011;6702;47.068;15.458;2022-09-06T09:29:18;11.05;;;10.40;;
13267;SDS011;6702;47.068;15.458;2022-09-06T09:32:29;11.05;;;10.45;;
13267;SDS011;6702;47.068;15.458;2022-09-06T09:35:33;10.40;;;9.80;;
13267;SDS011;6702;47.068;15.458;2022-09-06T09:38:42;10.40;;;9.80;;
13267;SDS011;6702;47.068;15.458;2022-09-06T09:41:47;10.88;;;10.18;;
13267;SDS011;6702;47.068;15.458;2022-09-06T09:44:53;11.38;;;10.77;;
13267;SDS011;6702;47.068;15.458;2022-09-06T09:47:57;12.00;;;11.20;;
13267;SDS011;6702;47.068;15.458;2022-09-06T09:51:20;12.15;;;11.27;;
13267;SDS011;6702;47.068;15.458;2022-09-06T09:54:28;11.32;;;10.73;;
13267;SDS011;6702;47.068;15.458;2022-09-06T09:57:41;10.50;;;9.80;;
13267;SDS011;6702;47.068;15.458;2022-09-06T10:00:49;12.50;;;11.73;;
13267;SDS011;6702;47.068;15.458;2022-09-06T10:04:17;10.88;;;10.27;;
13267;SDS011;6702;47.068;15.458;2022-09-06T10:07:44;12.00;;;11.30;;
13267;SDS011;6702;47.068;15.458;2022-09-06T10:10:49;12.63;;;11.82;;
13267;SDS011;6702;47.068;15.458;2022-09-06T10:13:53;10.80;;;10.10;;
13267;SDS011;6702;47.068;15.458;2022-09-06T10:17:20;12.52;;;11.73;;
13267;SDS011;6702;47.068;15.458;2022-09-06T10:20:32;12.95;;;12.13;;
13267;SDS011;6702;47.068;15.458;2022-09-06T10:23:45;12.98;;;12.07;;
13267;SDS011;6702;47.068;15.458;2022-09-06T10:27:23;11.77;;;11.07;;
13267;SDS011;6702;47.068;15.458;2022-09-06T10:30:28;14.18;;;13.27;;
13267;SDS011;6702;47.068;15.458;2022-09-06T10:33:36;11.85;;;10.98;;
13267;SDS011;6702;47.068;15.458;2022-09-06T10:36:47;12.70;;;11.90;;
13267;SDS011;6702;47.068;15.458;2022-09-06T10:39:56;15.00;;;14.05;;
13267;SDS011;6702;47.068;15.458;2022-09-06T10:43:06;13.13;;;12.27;;
13267;SDS011;6702;47.068;15.458;2022-09-06T10:46:15;12.85;;;12.05;;
13267;SDS011;6702;47.068;15.458;2022-09-06T10:49:23;11.98;;;11.18;;
13267;SDS011;6702;47.068;15.458;2022-09-06T10:52:31;12.07;;;11.32;;
13267;SDS011;6702;47.068;15.458;2022-09-06T10:55:39;13.38;;;12.25;;
13267;SDS011;6702;47.068;15.458;2022-09-06T10:58:49;12.30;;;11.50;;
13267;SDS011;6702;47.068;15.458;2022-09-06T11:02:28;13.93;;;12.98;;
13267;SDS011;6702;47.068;15.458;2022-09-06T11:05:42;13.20;;;12.35;;
13267;SDS011;6702;47.068;15.458;2022-09-06T11:08:48;13.30;;;12.48;;
13267;SDS011;6702;47.068;15.458;2022-09-06T11:12:00;14.30;;;13.30;;
13267;SDS011;6702;47.068;15.458;2022-09-06T11:15:09;13.77;;;12.77;;
13267;SDS011;6702;47.068;15.458;2022-09-06T11:18:16;13.57;;;12.68;;
13267;SDS011;6702;47.068;15.458;2022-09-06T11:21:33;12.05;;;11.35;;
13267;SDS011;6702;47.068;15.458;2022-09-06T11:25:11;12.82;;;11.93;;
13267;SDS011;6702;47.068;15.458;2022-09-06T11:28:33;12.10;;;11.30;;
13267;SDS011;6702;47.068;15.458;2022-09-06T11:31:48;12.15;;;11.32;;
13267;SDS011;6702;47.068;15.458;2022-09-06T11:35:22;12.55;;;11.63;;
13267;SDS011;6702;47.068;15.458;2022-09-06T11:38:28;11.40;;;10.70;;
13267;SDS011;6702;47.068;15.458;2022-09-06T11:41:32;11.10;;;10.30;;
13267;SDS011;6702;47.068;15.458;2022-09-06T11:44:51;10.30;;;9.65;;
13267;SDS011;6702;47.068;15.458;2022-09-06T11:51:49;11.95;;;11.15;;
13267;SDS011;6702;47.068;15.458;2022-09-06T11:54:54;10.68;;;9.98;;
13267;SDS011;6702;47.068;15.458;2022-09-06T11:57:57;12.57;;;11.60;;
13267;SDS011;6702;47.068;15.458;2022-09-06T12:08:29;11.57;;;10.88;;
13267;SDS011;6702;47.068;15.458;2022-09-06T12:11:36;10.98;;;10.25;;
13267;SDS011;6702;47.068;15.458;2022-09-06T12:14:43;11.15;;;10.45;;
13267;SDS011;6702;47.068;15.458;2022-09-06T12:17:47;11.50;;;10.80;;
13267;SDS011;6702;47.068;15.458;2022-09-06T12:20:59;10.23;;;9.63;;
13267;SDS011;6702;47.068;15.458;2022-09-06T12:24:04;11.43;;;10.63;;
13267;SDS011;6702;47.068;15.458;2022-09-06T12:27:11;12.43;;;11.63;;
13267;SDS011;6702;47.068;15.458;2022-09-06T12:30:29;12.77;;;11.88;;
13267;SDS011;6702;47.068;15.458;2022-09-06T12:33:36;13.18;;;12.05;;
13267;SDS011;6702;47.068;15.458;2022-09-06T12:40:06;11.95;;;11.15;;
13267;SDS011;6702;47.068;15.458;2022-09-06T12:43:14;11.43;;;10.63;;
13267;SDS011;6702;47.068;15.458;2022-09-06T12:46:18;11.45;;;10.75;;
13267;SDS011;6702;47.068;15.458;2022-09-06T12:49:22;12.07;;;11.27;;
13267;SDS011;6702;47.068;15.458;2022-09-06T12:52:25;11.13;;;10.35;;
13267;SDS011;6702;47.068;15.458;2022-09-06T12:55:29;11.02;;;10.23;;
13267;SDS011;6702;47.068;15.458;2022-09-06T12:58:35;11.55;;;10.70;;
13267;SDS011;6702;47.068;15.458;2022-09-06T13:01:39;10.65;;;9.95;;
13267;SDS011;6702;47.068;15.458;2022-09-06T13:04:50;11.00;;;10.20;;
13267;SDS011;6702;47.068;15.458;2022-09-06T13:07:56;11.23;;;10.50;;
13267;SDS011;6702;47.068;15.458;2022-09-06T13:11:03;9.90;;;9.13;;
13267;SDS011;6702;47.068;15.458;2022-09-06T13:14:15;9.73;;;9.13;;
13267;SDS011;6702;47.068;15.458;2022-09-06T13:17:22;10.65;;;9.95;;
13267;SDS011;6702;47.068;15.458;2022-09-06T13:20:27;10.57;;;9.68;;
13267;SDS011;6702;47.068;15.458;2022-09-06T13:23:38;9.98;;;9.38;;
13267;SDS011;6702;47.068;15.458;2022-09-06T13:26:44;9.40;;;8.70;;
13267;SDS011;6702;47.068;15.458;2022-09-06T13:29:54;11.60;;;10.55;;
13267;SDS011;6702;47.068;15.458;2022-09-06T13:32:58;10.07;;;9.48;;
13267;SDS011;6702;47.068;15.458;2022-09-06T13:36:06;10.00;;;9.38;;
13267;SDS011;6702;47.068;15.458;2022-09-06T13:39:30;11.18;;;10.18;;
13267;SDS011;6702;47.068;15.458;2022-09-06T13:42:34;10.15;;;9.45;;
13267;SDS011;6702;47.068;15.458;2022-09-06T13:45:39;9.57;;;8.88;;
13267;SDS011;6702;47.068;15.458;2022-09-06T13:48:42;9.45;;;8.75;;
13267;SDS011;6702;47.068;15.458;2022-09-06T13:51:46;10.20;;;9.50;;
13267;SDS011;6702;47.068;15.458;2022-09-06T13:54:49;9.63;;;9.02;;
13267;SDS011;6702;47.068;15.458;2022-09-06T13:57:52;9.05;;;8.30;;
13267;SDS011;6702;47.068;15.458;2022-09-06T14:00:56;9.43;;;8.60;;
13267;SDS011;6702;47.068;15.458;2022-09-06T14:04:00;9.82;;;9.13;;
13267;SDS011;6702;47.068;15.458;2022-09-06T14:07:04;10.57;;;9.77;;
13267;SDS011;6702;47.068;15.458;2022-09-06T14:10:08;9.93;;;9.25;;
13267;SDS011;6702;47.068;15.458;2022-09-06T14:13:12;11.10;;;10.30;;
13267;SDS011;6702;47.068;15.458;2022-09-06T14:16:17;10.18;;;9.52;;
13267;SDS011;6702;47.068;15.458;2022-09-06T14:19:20;10.20;;;9.40;;
13267;SDS011;6702;47.068;15.458;2022-09-06T14:22:24;10.20;;;9.60;;
13267;SDS011;6702;47.068;15.458;2022-09-06T14:25:27;10.23;;;9.52;;
13267;SDS011;6702;47.068;15.458;2022-09-06T14:28:31;10.45;;;9.75;;
13267;SDS011;6702;47.068;15.458;2022-09-06T14:31:36;11.13;;;10.32;;
13267;SDS011;6702;47.068;15.458;2022-09-06T14:34:40;9.70;;;9.10;;
13267;SDS011;6702;47.068;15.458;2022-09-06T14:37:43;9.70;;;8.80;;
13267;SDS011;6702;47.068;15.458;2022-09-06T14:40:46;10.85;;;9.88;;
13267;SDS011;6702;47.068;15.458;2022-09-06T14:43:50;9.13;;;8.63;;
13267;SDS011;6702;47.068;15.458;2022-09-06T14:46:56;10.30;;;9.50;;
13267;SDS011;6702;47.068;15.458;2022-09-06T14:50:00;10.20;;;9.50;;
13267;SDS011;6702;47.068;15.458;2022-09-06T14:53:04;10.18;;;9.50;;
13267;SDS011;6702;47.068;15.458;2022-09-06T14:56:27;11.13;;;10.25;;
13267;SDS011;6702;47.068;15.458;2022-09-06T14:59:30;10.82;;;10.02;;
13267;SDS011;6702;47.068;15.458;2022-09-06T15:02:35;10.88;;;9.93;;
13267;SDS011;6702;47.068;15.458;2022-09-06T15:05:39;11.18;;;10.35;;
13267;SDS011;6702;47.068;15.458;2022-09-06T15:08:42;9.70;;;9.00;;
13267;SDS011;6702;47.068;15.458;2022-09-06T15:11:46;10.80;;;9.90;;
13267;SDS011;6702;47.068;15.458;2022-09-06T15:14:51;9.83;;;9.13;;
13267;SDS011;6702;47.068;15.458;2022-09-06T15:17:55;15.68;;;14.18;;
13267;SDS011;6702;47.068;15.458;2022-09-06T15:21:06;16.90;;;15.30;;
13267;SDS011;6702;47.068;15.458;2022-09-06T15:24:10;10.20;;;9.50;;
13267;SDS011;6702;47.068;15.458;2022-09-06T15:27:14;10.67;;;9.97;;
13267;SDS011;6702;47.068;15.458;2022-09-06T15:30:17;10.97;;;10.17;;
13267;SDS011;6702;47.068;15.458;2022-09-06T15:33:21;10.80;;;10.00;;
13267;SDS011;6702;47.068;15.458;2022-09-06T15:36:24;11.93;;;11.13;;
13267;SDS011;6702;47.068;15.458;2022-09-06T15:39:28;10.93;;;10.23;;
13267;SDS011;6702;47.068;15.458;2022-09-06T15:42:31;14.43;;;13.20;;
13267;SDS011;6702;47.068;15.458;2022-09-06T15:45:36;12.80;;;11.80;;
13267;SDS011;6702;47.068;15.458;2022-09-06T15:48:50;14.00;;;12.97;;
13267;SDS011;6702;47.068;15.458;2022-09-06T15:51:54;47.80;;;36.37;;
13267;SDS011;6702;47.068;15.458;2022-09-06T15:54:58;19.27;;;17.37;;
13267;SDS011;6702;47.068;15.458;2022-09-06T15:58:19;14.13;;;12.90;;
13267;SDS011;6702;47.068;15.458;2022-09-06T16:01:23;14.80;;;13.50;;
13267;SDS011;6702;47.068;15.458;2022-09-06T16:04:28;16.10;;;14.60;;
13267;SDS011;6702;47.068;15.458;2022-09-06T16:07:31;19.97;;;18.07;;
13267;SDS011;6702;47.068;15.458;2022-09-06T16:10:36;11.80;;;10.90;;
13267;SDS011;6702;47.068;15.458;2022-09-06T16:13:40;13.93;;;12.73;;
13267;SDS011;6702;47.068;15.458;2022-09-06T16:16:44;14.60;;;13.40;;
13267;SDS011;6702;47.068;15.458;2022-09-06T16:19:48;13.00;;;11.97;;
13267;SDS011;6702;47.068;15.458;2022-09-06T16:22:51;13.87;;;12.43;;
13267;SDS011;6702;47.068;15.458;2022-09-06T16:25:55;10.07;;;9.27;;
13267;SDS011;6702;47.068;15.458;2022-09-06T16:28:58;10.27;;;9.30;;
13267;SDS011;6702;47.068;15.458;2022-09-06T16:32:02;8.77;;;8.07;;
13267;SDS011;6702;47.068;15.458;2022-09-06T16:35:07;9.83;;;9.13;;
13267;SDS011;6702;47.068;15.458;2022-09-06T16:38:10;8.57;;;7.97;;
13267;SDS011;6702;47.068;15.458;2022-09-06T16:41:15;10.00;;;9.20;;
13267;SDS011;6702;47.068;15.458;2022-09-06T16:44:20;9.10;;;8.33;;
13267;SDS011;6702;47.068;15.458;2022-09-06T16:47:23;8.90;;;8.30;;
13267;SDS011;6702;47.068;15.458;2022-09-06T16:50:28;9.57;;;8.77;;
13267;SDS011;6702;47.068;15.458;2022-09-06T16:53:31;10.20;;;9.50;;
13267;SDS011;6702;47.068;15.458;2022-09-06T16:56:34;9.77;;;8.97;;
13267;SDS011;6702;47.068;15.458;2022-09-06T16:59:38;11.37;;;10.57;;
13267;SDS011;6702;47.068;15.458;2022-09-06T17:02:41;10.67;;;9.87;;
13267;SDS011;6702;47.068;15.458;2022-09-06T17:05:49;10.10;;;9.40;;
13267;SDS011;6702;47.068;15.458;2022-09-06T17:08:54;10.10;;;9.40;;
13267;SDS011;6702;47.068;15.458;2022-09-06T17:11:58;9.20;;;8.50;;
13267;SDS011;6702;47.068;15.458;2022-09-06T17:15:01;10.57;;;9.77;;
13267;SDS011;6702;47.068;15.458;2022-09-06T17:18:05;10.33;;;9.63;;
13267;SDS011;6702;47.068;15.458;2022-09-06T17:21:10;10.80;;;9.90;;
13267;SDS011;6702;47.068;15.458;2022-09-06T17:24:13;11.00;;;10.10;;
13267;SDS011;6702;47.068;15.458;2022-09-06T17:27:16;10.47;;;9.60;;
13267;SDS011;6702;47.068;15.458;2022-09-06T17:30:19;11.17;;;10.37;;
13267;SDS011;6702;47.068;15.458;2022-09-06T17:33:23;10.80;;;10.00;;
13267;SDS011;6702;47.068;15.458;2022-09-06T17:36:28;11.90;;;10.80;;
13267;SDS011;6702;47.068;15.458;2022-09-06T17:39:33;10.93;;;10.03;;
13267;SDS011;6702;47.068;15.458;2022-09-06T17:42:36;10.80;;;10.00;;
13267;SDS011;6702;47.068;15.458;2022-09-06T17:45:40;9.57;;;8.77;;
13267;SDS011;6702;47.068;15.458;2022-09-06T17:48:44;9.53;;;8.73;;
13267;SDS011;6702;47.068;15.458;2022-09-06T17:51:48;10.70;;;9.37;;
13267;SDS011;6702;47.068;15.458;2022-09-06T17:54:52;9.37;;;8.67;;
13267;SDS011;6702;47.068;15.458;2022-09-06T17:57:55;8.27;;;7.60;;
13267;SDS011;6702;47.068;15.458;2022-09-06T18:01:00;7.60;;;7.10;;
13267;SDS011;6702;47.068;15.458;2022-09-06T18:04:04;8.37;;;7.87;;
13267;SDS011;6702;47.068;15.458;2022-09-06T18:07:11;7.73;;;7.13;;
13267;SDS011;6702;47.068;15.458;2022-09-06T18:10:14;7.80;;;7.20;;
13267;SDS011;6702;47.068;15.458;2022-09-06T18:13:18;7.53;;;6.93;;
13267;SDS011;6702;47.068;15.458;2022-09-06T18:16:21;7.67;;;7.17;;
13267;SDS011;6702;47.068;15.458;2022-09-06T18:19:25;7.70;;;6.97;;
13267;SDS011;6702;47.068;15.458;2022-09-06T18:22:30;7.63;;;6.97;;
13267;SDS011;6702;47.068;15.458;2022-09-06T18:25:33;7.63;;;7.07;;
13267;SDS011;6702;47.068;15.458;2022-09-06T18:28:37;6.70;;;6.20;;
13267;SDS011;6702;47.068;15.458;2022-09-06T18:31:41;8.37;;;7.57;;
13267;SDS011;6702;47.068;15.458;2022-09-06T18:34:45;8.77;;;7.50;;